METAR Formatted Surface Weather Observation
Issued by NWS

Home | Current Version | Previous Version | Text Only | Print | Product List | Glossary On
Versions: 1
000
SAUS70 KEPZ 171607
MTR5T6

METAR K5T6 171550Z 07007KT 10SM SKC 19/M04 A3007 RMK UNOFFICIAL=









USA.gov is the U.S. government's official web portal to all federal, state and local government web resources and services.